Time;durP1;ratioP1;P1;durP2;ratioP2;P2;SDS_P1;SDS_P2;PMS_P1;PMS_P2;Temp;Humidity;BMP_temperature;BMP_pressure;BME280_temperature;BME280_humidity;BME280_pressure;Samples;Min_cycle;Max_cycle;Signal;HPM_P1;HPM_P2
2023/09/29 00:03:15;;;;;;;5.50;4.50;;;16.20;1.00;;;;;;5000690;28;20518;-80
2023/09/29 00:05:42;;;;;;;9.43;5.07;;;16.20;1.00;;;;;;5012620;28;20464;-81
2023/09/29 00:08:09;;;;;;;10.10;4.93;;;16.20;1.00;;;;;;5020787;28;20433;-81
2023/09/29 00:17:24;;;;;;;11.40;5.30;;;16.10;1.00;;;;;;5013290;28;20401;-80
2023/09/29 00:20:29;;;;;;;11.07;4.97;;;16.10;1.00;;;;;;5019255;28;20773;-80
2023/09/29 00:23:48;;;;;;;7.40;4.90;;;16.10;1.00;;;;;;5018167;28;20424;-80
2023/09/29 00:30:06;;;;;;;7.60;4.80;;;16.00;1.00;;;;;;5013481;28;20421;-81
2023/09/29 00:33:12;;;;;;;10.03;5.47;;;15.90;1.00;;;;;;5007090;28;20469;-81
2023/09/29 00:35:37;;;;;;;12.43;5.37;;;15.90;1.00;;;;;;5012188;28;20502;-80
2023/09/29 00:38:19;;;;;;;8.67;5.27;;;15.90;1.00;;;;;;5023161;28;20449;-81
2023/09/29 00:41:18;;;;;;;15.23;5.87;;;15.80;1.00;;;;;;5013699;28;20265;-79
2023/09/29 00:47:50;;;;;;;16.30;5.37;;;15.80;1.00;;;;;;5021255;28;20412;-79
2023/09/29 00:50:48;;;;;;;10.17;4.90;;;15.70;1.00;;;;;;5027245;28;20525;-80
2023/09/29 00:53:19;;;;;;;10.40;5.30;;;15.70;1.00;;;;;;5000218;28;20409;-80
2023/09/29 00:55:46;;;;;;;8.90;4.93;;;15.60;1.00;;;;;;5013449;28;20454;-80
2023/09/29 00:58:12;;;;;;;10.53;6.60;;;15.60;1.00;;;;;;5019248;28;20418;-80
2023/09/29 01:00:42;;;;;;;18.13;6.50;;;15.50;1.00;;;;;;5020027;28;20405;-80
2023/09/29 01:03:11;;;;;;;12.63;5.27;;;15.50;1.00;;;;;;5003152;28;20481;-80
2023/09/29 01:05:43;;;;;;;11.13;5.47;;;15.50;1.00;;;;;;5022590;28;20548;-80
2023/09/29 01:08:20;;;;;;;9.83;5.53;;;15.50;1.00;;;;;;5019105;28;20478;-80
2023/09/29 01:10:46;;;;;;;11.17;5.60;;;15.50;1.00;;;;;;5010113;28;20413;-80
2023/09/29 01:13:24;;;;;;;12.00;5.10;;;15.50;1.00;;;;;;5016797;28;20406;-80
2023/09/29 01:16:24;;;;;;;11.63;5.83;;;15.50;1.00;;;;;;5026927;28;20401;-80
2023/09/29 01:19:12;;;;;;;10.33;5.70;;;15.60;1.00;;;;;;5018611;28;20425;-80
2023/09/29 01:21:54;;;;;;;11.00;5.43;;;15.60;1.00;;;;;;5022720;28;20404;-80
2023/09/29 01:24:30;;;;;;;15.00;6.00;;;15.60;1.00;;;;;;5017108;28;20461;-80
2023/09/29 01:27:00;;;;;;;13.27;5.90;;;15.60;1.00;;;;;;5022057;28;20832;-80
2023/09/29 01:30:13;;;;;;;13.20;5.50;;;15.60;1.00;;;;;;4998896;28;21036;-79
2023/09/29 01:32:43;;;;;;;6.40;4.87;;;15.50;1.00;;;;;;5018263;28;20821;-80
2023/09/29 01:35:23;;;;;;;8.70;5.80;;;15.50;1.90;;;;;;5010717;28;20477;-80
2023/09/29 01:38:18;;;;;;;10.67;6.07;;;15.50;2.40;;;;;;5010200;28;20495;-80
2023/09/29 01:41:00;;;;;;;11.10;5.83;;;15.50;3.00;;;;;;5020010;28;20761;-80
2023/09/29 01:44:06;;;;;;;17.70;6.20;;;15.60;2.70;;;;;;5015411;28;20984;-80
2023/09/29 01:46:54;;;;;;;11.43;6.00;;;15.60;2.20;;;;;;5011348;28;20441;-80
2023/09/29 01:49:48;;;;;;;8.00;5.33;;;15.60;1.00;;;;;;5023003;28;20478;-80
2023/09/29 01:52:30;;;;;;;9.50;6.47;;;15.60;1.00;;;;;;5007732;28;20412;-80
2023/09/29 01:58:18;;;;;;;8.10;5.60;;;15.50;1.00;;;;;;5011460;28;20414;-80
2023/09/29 02:00:54;;;;;;;10.23;5.30;;;15.50;2.10;;;;;;5022387;28;20403;-80
2023/09/29 02:06:50;;;;;;;9.47;5.00;;;15.50;1.60;;;;;;5013833;28;20452;-80
2023/09/29 02:09:48;;;;;;;8.47;5.40;;;15.50;1.20;;;;;;5027777;28;20424;-80
2023/09/29 02:12:53;;;;;;;10.90;5.53;;;15.50;1.50;;;;;;5007510;28;20434;-81
2023/09/29 02:15:48;;;;;;;12.47;5.53;;;15.40;2.60;;;;;;5012356;28;20772;-80
2023/09/29 02:21:48;;;;;;;15.17;6.17;;;15.30;5.50;;;;;;5020359;28;20386;-80
2023/09/29 02:24:18;;;;;;;15.87;6.03;;;15.40;4.50;;;;;;5015489;28;20815;-80
2023/09/29 02:27:24;;;;;;;19.70;5.63;;;15.30;5.00;;;;;;5015500;28;20435;-80
2023/09/29 02:33:50;;;;;;;7.00;5.13;;;15.40;4.60;;;;;;5021377;28;20455;-80
2023/09/29 02:36:19;;;;;;;9.53;5.70;;;15.50;6.00;;;;;;5007664;28;20460;-81
2023/09/29 02:38:49;;;;;;;10.03;5.73;;;15.50;5.90;;;;;;5017828;28;20420;-80
2023/09/29 02:41:48;;;;;;;11.40;6.13;;;15.60;4.90;;;;;;5016303;28;20400;-80
2023/09/29 02:44:48;;;;;;;10.90;5.60;;;15.60;7.50;;;;;;5008891;28;20457;-80
2023/09/29 02:47:42;;;;;;;13.47;5.77;;;15.70;4.20;;;;;;5024986;28;20475;-80
2023/09/29 02:54:12;;;;;;;11.33;5.90;;;15.80;5.30;;;;;;5016743;28;20429;-80
2023/09/29 02:56:50;;;;;;;19.87;6.83;;;15.90;1.00;;;;;;5014296;28;20401;-80
2023/09/29 02:59:16;;;;;;;12.47;6.20;;;15.90;3.30;;;;;;5009790;28;20615;-80
2023/09/29 03:01:44;;;;;;;6.90;5.00;;;15.90;3.70;;;;;;5025380;28;20415;-80
2023/09/29 03:04:19;;;;;;;15.73;6.10;;;16.00;3.50;;;;;;5015609;28;20914;-80
2023/09/29 03:06:56;;;;;;;15.43;6.97;;;16.00;2.70;;;;;;5013177;28;20401;-80
2023/09/29 03:09:25;;;;;;;14.77;6.07;;;16.10;2.40;;;;;;5017966;28;20451;-80
2023/09/29 03:11:54;;;;;;;14.27;6.50;;;16.10;1.00;;;;;;5007711;28;20403;-80
2023/09/29 03:14:24;;;;;;;7.37;5.13;;;16.10;1.10;;;;;;5032673;28;20398;-82
2023/09/29 03:16:54;;;;;;;10.20;5.80;;;16.20;1.90;;;;;;5014738;28;20487;-80
2023/09/29 03:19:30;;;;;;;12.30;5.60;;;16.20;1.80;;;;;;5026160;28;20388;-80
2023/09/29 03:22:00;;;;;;;9.97;5.47;;;16.20;1.00;;;;;;5018591;28;20836;-80
2023/09/29 03:24:30;;;;;;;9.23;5.47;;;16.20;1.00;;;;;;5020054;28;20449;-80
2023/09/29 03:26:56;;;;;;;8.40;5.57;;;16.30;1.00;;;;;;5014223;28;20401;-80
2023/09/29 03:29:24;;;;;;;9.70;5.40;;;16.30;1.20;;;;;;5018319;28;20456;-80
2023/09/29 03:31:54;;;;;;;14.87;5.60;;;16.30;1.00;;;;;;5035085;28;20660;-80
2023/09/29 03:34:24;;;;;;;7.10;5.40;;;16.40;1.00;;;;;;5016411;28;20374;-80
2023/09/29 03:37:06;;;;;;;10.13;5.17;;;16.40;1.00;;;;;;5034396;28;20401;-80
2023/09/29 03:39:37;;;;;;;9.20;6.03;;;16.40;1.00;;;;;;5008015;28;20426;-81
2023/09/29 03:42:20;;;;;;;13.07;6.03;;;16.40;1.00;;;;;;5027559;28;20418;-82
2023/09/29 03:44:48;;;;;;;8.53;5.33;;;16.40;1.00;;;;;;5008985;28;20443;-81
2023/09/29 03:47:14;;;;;;;10.20;5.43;;;16.40;1.00;;;;;;5019140;28;20416;-81
2023/09/29 03:49:42;;;;;;;9.77;5.70;;;16.50;1.00;;;;;;5019175;28;21159;-81
2023/09/29 03:52:08;;;;;;;14.97;5.77;;;16.50;1.00;;;;;;5005872;28;20491;-85
2023/09/29 03:54:36;;;;;;;10.73;6.20;;;16.50;1.00;;;;;;5028182;28;20801;-85
2023/09/29 03:57:32;;;;;;;9.30;5.90;;;16.60;1.00;;;;;;5027615;28;20189;-89
2023/09/29 04:00:36;;;;;;;8.57;5.43;;;16.60;1.00;;;;;;5022100;28;20429;-84
2023/09/29 04:03:18;;;;;;;9.77;5.20;;;16.60;1.00;;;;;;5047831;28;20427;-84
2023/09/29 04:06:18;;;;;;;9.60;5.37;;;16.60;1.00;;;;;;5025320;28;20408;-83
2023/09/29 04:08:48;;;;;;;9.43;5.40;;;16.60;1.00;;;;;;5015299;28;20426;-84
2023/09/29 04:11:49;;;;;;;10.73;5.67;;;16.60;1.00;;;;;;4994579;28;20410;-84
2023/09/29 04:15:06;;;;;;;11.87;5.23;;;16.70;1.00;;;;;;5012034;28;20433;-85
2023/09/29 04:18:18;;;;;;;12.17;5.70;;;16.70;1.00;;;;;;5016781;28;20455;-84
2023/09/29 04:21:18;;;;;;;10.57;6.63;;;16.60;1.00;;;;;;5033133;28;20514;-84
2023/09/29 04:24:18;;;;;;;13.90;5.90;;;16.60;1.00;;;;;;5032841;28;20447;-83
2023/09/29 04:26:48;;;;;;;10.43;4.70;;;16.70;1.00;;;;;;5020353;28;20421;-84
2023/09/29 04:29:30;;;;;;;15.40;6.50;;;16.70;1.00;;;;;;5014170;28;20414;-84
2023/09/29 04:31:56;;;;;;;7.70;5.07;;;16.70;1.00;;;;;;5024811;28;20411;-84
2023/09/29 04:34:48;;;;;;;10.47;6.37;;;16.70;1.00;;;;;;5014443;28;20852;-84
2023/09/29 04:40:37;;;;;;;9.20;5.20;;;16.60;1.00;;;;;;5016415;28;20750;-84
2023/09/29 04:43:05;;;;;;;6.10;5.50;;;16.60;1.00;;;;;;5010717;28;20913;-90
2023/09/29 04:45:55;;;;;;;153.80;75.40;;;16.60;1.00;;;;;;5013090;28;20514;-90
2023/09/29 04:49:11;;;;;;;597.77;151.17;;;16.70;1.00;;;;;;5013929;28;20418;-90
2023/09/29 04:52:18;;;;;;;215.90;69.70;;;16.70;1.00;;;;;;5007073;28;20443;-90
2023/09/29 04:54:43;;;;;;;7.67;5.20;;;16.70;1.00;;;;;;5042620;28;20908;-90
2023/09/29 04:57:19;;;;;;;10.80;7.73;;;16.70;1.00;;;;;;5013338;28;20393;-90
2023/09/29 04:59:49;;;;;;;9.73;6.00;;;16.70;1.00;;;;;;5013303;28;20188;-90
2023/09/29 05:02:19;;;;;;;14.33;6.30;;;16.70;1.00;;;;;;5029084;28;20447;-90
2023/09/29 05:05:18;;;;;;;11.50;6.27;;;16.70;1.00;;;;;;5012227;28;20469;-90
2023/09/29 05:08:18;;;;;;;10.97;5.83;;;16.70;1.00;;;;;;5000239;28;20406;-90
2023/09/29 05:10:48;;;;;;;9.30;5.80;;;16.70;1.00;;;;;;5007500;28;20434;-90
2023/09/29 05:13:18;;;;;;;7.87;6.27;;;16.60;1.00;;;;;;5023483;28;20396;-89
2023/09/29 05:15:48;;;;;;;7.07;5.43;;;16.70;1.00;;;;;;5011176;28;20442;-91
2023/09/29 05:18:14;;;;;;;9.97;6.30;;;16.70;1.00;;;;;;4998572;28;20830;-88
2023/09/29 05:20:46;;;;;;;10.37;5.57;;;16.70;1.00;;;;;;5022360;28;20444;-87
2023/09/29 05:24:09;;;;;;;8.90;5.60;;;16.70;1.00;;;;;;5011074;28;20964;-86
2023/09/29 05:26:35;;;;;;;10.90;5.97;;;16.70;1.00;;;;;;4951434;28;20465;-87
2023/09/29 05:29:23;;;;;;;10.67;5.90;;;16.70;1.00;;;;;;4956375;28;20523;-86
2023/09/29 05:32:18;;;;;;;13.23;6.37;;;16.60;1.00;;;;;;4973264;28;20323;-87
2023/09/29 05:35:19;;;;;;;15.87;5.73;;;16.60;1.00;;;;;;4958606;28;20502;-86
2023/09/29 05:38:18;;;;;;;16.30;5.73;;;16.60;1.00;;;;;;4972896;28;20524;-86
2023/09/29 05:40:50;;;;;;;14.83;6.53;;;16.60;1.00;;;;;;4983961;28;20426;-87
2023/09/29 05:43:18;;;;;;;6.17;5.17;;;16.60;1.00;;;;;;4963723;28;20552;-86
2023/09/29 05:45:48;;;;;;;11.03;6.20;;;16.70;1.00;;;;;;4960421;28;20504;-86
2023/09/29 05:48:39;;;;;;;12.40;5.83;;;16.70;1.00;;;;;;4965565;28;20524;-86
2023/09/29 05:51:49;;;;;;;11.43;5.90;;;16.70;1.00;;;;;;4957394;28;20473;-87
2023/09/29 05:54:18;;;;;;;7.60;5.87;;;16.70;1.00;;;;;;4974013;28;20446;-86
2023/09/29 05:56:49;;;;;;;14.23;6.57;;;16.80;1.00;;;;;;4964299;28;20438;-86
2023/09/29 05:59:15;;;;;;;13.27;6.33;;;16.80;1.00;;;;;;4962935;28;20449;-83
2023/09/29 06:01:48;;;;;;;11.80;6.17;;;16.80;1.00;;;;;;5016377;28;20525;-83
2023/09/29 06:04:48;;;;;;;7.50;5.80;;;16.80;1.00;;;;;;5015527;28;20218;-83
2023/09/29 06:07:48;;;;;;;9.33;5.47;;;16.90;1.00;;;;;;5010960;28;20532;-83
2023/09/29 06:10:37;;;;;;;8.60;6.17;;;17.00;1.00;;;;;;5009538;28;20401;-83
2023/09/29 06:13:12;;;;;;;15.00;6.70;;;17.00;1.00;;;;;;5015847;28;20435;-83
2023/09/29 06:15:48;;;;;;;13.03;6.07;;;17.00;1.00;;;;;;5013530;28;20418;-86
2023/09/29 06:18:18;;;;;;;9.97;6.47;;;17.10;1.00;;;;;;5016222;28;20397;-87
2023/09/29 06:20:48;;;;;;;10.57;6.50;;;17.20;1.00;;;;;;5030215;28;20404;-87
2023/09/29 06:23:14;;;;;;;13.80;6.50;;;17.30;1.00;;;;;;5021815;28;20474;-87
2023/09/29 06:25:40;;;;;;;8.23;6.27;;;17.30;1.00;;;;;;5016250;28;20924;-87
2023/09/29 06:28:06;;;;;;;11.87;6.17;;;17.40;1.00;;;;;;5027458;28;20234;-90
2023/09/29 06:30:32;;;;;;;13.00;6.70;;;17.50;1.00;;;;;;5019853;28;20181;-83
2023/09/29 06:33:12;;;;;;;11.87;6.03;;;17.60;1.00;;;;;;5019534;28;20441;-84
2023/09/29 06:35:48;;;;;;;14.73;6.77;;;17.70;1.00;;;;;;5014733;28;20646;-84
2023/09/29 06:38:18;;;;;;;15.50;6.17;;;17.80;1.00;;;;;;5012998;28;20427;-83
2023/09/29 06:40:48;;;;;;;14.50;5.87;;;17.80;1.00;;;;;;5015958;28;20459;-85
2023/09/29 06:43:18;;;;;;;20.63;6.07;;;17.90;1.00;;;;;;5017892;28;20439;-85
2023/09/29 06:45:49;;;;;;;8.97;5.70;;;18.10;1.00;;;;;;5021575;28;20439;-88
2023/09/29 06:48:19;;;;;;;11.90;5.87;;;18.00;1.00;;;;;;5015067;28;20438;-88
2023/09/29 06:50:45;;;;;;;7.23;5.43;;;18.20;1.00;;;;;;5023582;28;20460;-88
2023/09/29 06:53:18;;;;;;;8.70;5.60;;;18.30;1.00;;;;;;5020102;28;20427;-88
2023/09/29 06:56:00;;;;;;;8.33;6.10;;;18.40;1.00;;;;;;5030636;28;20203;-88
2023/09/29 06:58:36;;;;;;;15.80;7.20;;;18.50;1.00;;;;;;5012255;28;20446;-89
2023/09/29 07:01:18;;;;;;;14.47;7.27;;;18.70;1.00;;;;;;5018994;28;20438;-88
2023/09/29 07:03:45;;;;;;;15.33;6.80;;;18.80;1.00;;;;;;5020187;28;20465;-88
2023/09/29 07:06:21;;;;;;;14.23;6.77;;;18.90;1.00;;;;;;5035119;28;20432;-88
2023/09/29 07:09:01;;;;;;;16.13;6.97;;;19.00;1.00;;;;;;5032238;28;20430;-89
2023/09/29 07:12:08;;;;;;;11.73;6.47;;;19.10;1.00;;;;;;5020185;28;20757;-88
2023/09/29 07:14:37;;;;;;;34.30;9.70;;;19.20;1.00;;;;;;5012973;28;20520;-88
2023/09/29 07:17:09;;;;;;;18.37;7.07;;;19.20;1.00;;;;;;5014262;28;20411;-88
2023/09/29 07:19:34;;;;;;;11.40;6.40;;;19.30;1.00;;;;;;5015356;28;20983;-88
2023/09/29 07:22:13;;;;;;;10.33;6.53;;;;;;;;;;5012743;28;20442;-88
2023/09/29 07:24:43;;;;;;;19.40;7.43;;;;;;;;;;5036991;28;20684;-88
2023/09/29 07:27:19;;;;;;;13.83;6.60;;;19.50;1.00;;;;;;5030595;28;20508;-88
2023/09/29 07:29:49;;;;;;;37.53;8.87;;;19.70;1.00;;;;;;5014399;28;20459;-88
2023/09/29 07:32:31;;;;;;;11.40;6.53;;;19.70;1.00;;;;;;5032421;28;20564;-88
2023/09/29 07:35:07;;;;;;;13.63;6.37;;;19.80;1.00;;;;;;5034554;28;20383;-88
2023/09/29 07:38:24;;;;;;;13.17;7.10;;;19.80;1.00;;;;;;5011151;28;20452;-88
2023/09/29 07:40:54;;;;;;;11.00;5.90;;;19.80;1.00;;;;;;5017120;28;20509;-89
2023/09/29 07:43:31;;;;;;;8.10;5.70;;;19.60;1.00;;;;;;5025957;28;20460;-88
2023/09/29 07:46:00;;;;;;;8.90;5.23;;;19.60;1.00;;;;;;5024004;28;20430;-88
2023/09/29 07:49:14;;;;;;;554.07;222.07;;;19.60;1.00;;;;;;5016179;28;20462;-88
2023/09/29 07:52:12;;;;;;;363.60;194.17;;;19.80;1.00;;;;;;5021800;28;20466;-89
2023/09/29 07:58:06;;;;;;;570.77;236.53;;;20.10;1.00;;;;;;5015254;28;20418;-90
2023/09/29 08:01:06;;;;;;;9.30;5.90;;;20.20;1.00;;;;;;5017752;28;20437;-89
2023/09/29 08:03:49;;;;;;;10.77;6.27;;;20.20;1.00;;;;;;5019724;28;20481;-89
2023/09/29 08:06:48;;;;;;;13.03;5.80;;;20.20;1.00;;;;;;5013957;28;20447;-89
2023/09/29 08:09:48;;;;;;;14.90;5.53;;;20.30;1.00;;;;;;5014952;28;20421;-89
2023/09/29 08:12:19;;;;;;;12.30;6.23;;;20.40;1.00;;;;;;5005563;28;20433;-89
2023/09/29 08:14:50;;;;;;;20.07;6.20;;;20.40;1.00;;;;;;5013780;28;20425;-89
2023/09/29 08:17:19;;;;;;;9.60;6.43;;;20.50;1.00;;;;;;5011850;28;20489;-89
2023/09/29 08:20:14;;;;;;;14.17;6.40;;;20.30;1.00;;;;;;5013544;28;20476;-89
2023/09/29 08:22:48;;;;;;;10.27;5.27;;;20.40;1.00;;;;;;5030085;28;20464;-89
2023/09/29 08:25:48;;;;;;;10.73;5.90;;;20.50;1.00;;;;;;5014231;28;20431;-89
2023/09/29 08:28:18;;;;;;;11.17;5.53;;;20.60;1.00;;;;;;5014062;28;20525;-89
2023/09/29 08:30:48;;;;;;;15.30;5.37;;;20.70;1.00;;;;;;5014359;28;20497;-89
2023/09/29 08:33:18;;;;;;;14.53;5.47;;;20.90;1.00;;;;;;5023720;28;20754;-90
2023/09/29 08:35:57;;;;;;;15.60;5.17;;;21.20;1.00;;;;;;5020402;28;20425;-89
2023/09/29 08:38:24;;;;;;;9.43;5.57;;;21.50;1.00;;;;;;5010589;28;20415;-90
2023/09/29 08:41:21;;;;;;;9.97;5.40;;;21.60;1.00;;;;;;5022466;28;20935;-89
2023/09/29 08:43:49;;;;;;;10.27;5.40;;;21.60;1.00;;;;;;5013669;28;20460;-90
2023/09/29 08:46:20;;;;;;;8.83;5.10;;;21.80;1.00;;;;;;5013894;28;20419;-87
2023/09/29 08:48:50;;;;;;;24.00;5.83;;;22.10;1.00;;;;;;5037092;28;20438;-87
2023/09/29 08:51:20;;;;;;;6.90;5.30;;;22.10;1.00;;;;;;5032441;28;20927;-87
2023/09/29 08:54:06;;;;;;;10.63;5.33;;;22.10;1.00;;;;;;5028820;28;20436;-87
2023/09/29 08:56:39;;;;;;;14.47;4.50;;;22.20;1.00;;;;;;5010272;28;20931;-87
2023/09/29 08:59:37;;;;;;;9.77;4.67;;;22.10;1.00;;;;;;5002957;28;20488;-87
2023/09/29 09:02:07;;;;;;;8.00;4.80;;;22.20;1.00;;;;;;5012521;28;20486;-87
2023/09/29 09:04:33;;;;;;;9.73;4.07;;;22.10;1.00;;;;;;5024549;28;20830;-87
2023/09/29 09:07:00;;;;;;;10.23;5.90;;;22.10;1.00;;;;;;5030109;28;20470;-88
2023/09/29 09:09:32;;;;;;;7.37;4.83;;;22.10;1.00;;;;;;5029887;28;20393;-86
2023/09/29 09:12:08;;;;;;;11.50;4.40;;;22.20;1.00;;;;;;5016338;28;20410;-87
2023/09/29 09:14:48;;;;;;;9.07;4.50;;;22.30;1.00;;;;;;5024345;28;20454;-88
2023/09/29 09:20:55;;;;;;;4.53;3.90;;;22.30;1.00;;;;;;5031908;28;20754;-90
2023/09/29 09:23:48;;;;;;;7.80;4.60;;;22.40;1.00;;;;;;5024866;28;20482;-90
2023/09/29 09:26:19;;;;;;;7.73;4.87;;;22.70;1.00;;;;;;5015134;28;20434;-90
2023/09/29 09:29:07;;;;;;;11.77;4.90;;;22.90;1.00;;;;;;5011886;28;20482;-90
2023/09/29 09:32:18;;;;;;;14.17;5.20;;;22.80;1.00;;;;;;5040863;28;20933;-87
2023/09/29 09:34:50;;;;;;;16.50;5.23;;;22.70;1.00;;;;;;5025330;28;20437;-87
2023/09/29 09:37:28;;;;;;;8.57;4.80;;;22.80;1.00;;;;;;5019933;28;20435;-87
2023/09/29 09:40:49;;;;;;;9.57;5.27;;;22.90;1.00;;;;;;5011912;28;20424;-87
2023/09/29 09:46:57;;;;;;;9.43;5.30;;;23.10;1.00;;;;;;5015010;28;20476;-87
2023/09/29 09:50:06;;;;;;;7.50;4.30;;;23.50;1.00;;;;;;5023100;28;20451;-87
2023/09/29 09:53:09;;;;;;;11.83;5.00;;;23.80;1.00;;;;;;5009222;28;20494;-87
2023/09/29 09:56:26;;;;;;;7.63;3.67;;;24.20;1.00;;;;;;5016553;28;20430;-87
2023/09/29 09:58:57;;;;;;;11.10;5.00;;;24.40;1.00;;;;;;4939279;29;21017;-87
2023/09/29 10:01:38;;;;;;;13.40;4.83;;;24.80;1.00;;;;;;4947647;28;22530;-87
2023/09/29 10:04:08;;;;;;;9.30;4.30;;;25.10;1.00;;;;;;4950774;28;20472;-88
2023/09/29 10:06:35;;;;;;;8.83;4.40;;;25.20;1.00;;;;;;4950255;28;20514;-88
2023/09/29 10:12:27;;;;;;;7.83;3.30;;;25.80;1.00;;;;;;4966366;28;20424;-87
2023/09/29 10:15:18;;;;;;;6.83;3.50;;;26.20;1.00;;;;;;4934396;29;20515;-87
2023/09/29 10:18:36;;;;;;;9.33;3.60;;;26.40;1.00;;;;;;4945350;28;20446;-88
2023/09/29 10:21:09;;;;;;;4.80;3.53;;;26.40;1.00;;;;;;4956942;28;20829;-89
2023/09/29 10:27:13;;;;;;;5.03;3.53;;;26.60;1.00;;;;;;4953685;29;20440;-89
2023/09/29 10:33:56;;;;;;;12.40;4.60;;;26.70;1.00;;;;;;4957562;29;20386;-88
2023/09/29 10:36:36;;;;;;;11.13;3.90;;;26.60;1.00;;;;;;4978925;28;20443;-89
2023/09/29 10:39:06;;;;;;;647.07;443.97;;;26.70;1.00;;;;;;4995699;28;20450;-88
2023/09/29 10:41:37;;;;;;;626.67;400.93;;;26.70;1.00;;;;;;4995656;28;20516;-89
2023/09/29 10:44:56;;;;;;;5.50;4.23;;;26.80;1.00;;;;;;4985214;28;20541;-89
2023/09/29 10:47:37;;;;;;;744.60;417.63;;;26.70;1.00;;;;;;4943182;29;20428;-87
2023/09/29 10:50:10;;;;;;;613.30;461.47;;;26.70;1.00;;;;;;4939261;29;20439;-87
2023/09/29 10:52:37;;;;;;;7.63;4.47;;;26.60;1.00;;;;;;4936553;29;20415;-88
2023/09/29 10:55:11;;;;;;;10.07;4.23;;;26.60;1.00;;;;;;4937367;29;20431;-89
2023/09/29 10:58:06;;;;;;;7.60;4.00;;;26.70;1.00;;;;;;4937034;29;20430;-88
2023/09/29 11:01:06;;;;;;;599.47;461.23;;;26.80;1.00;;;;;;4936838;29;20437;-88
2023/09/29 11:03:36;;;;;;;6.10;4.00;;;26.80;1.00;;;;;;4946002;29;20548;-89
2023/09/29 11:06:39;;;;;;;11.23;4.57;;;27.00;1.00;;;;;;4948908;29;20514;-88
2023/09/29 11:09:07;;;;;;;7.93;3.90;;;27.20;1.00;;;;;;4937958;29;20535;-88
2023/09/29 11:11:39;;;;;;;7.23;3.90;;;27.10;1.00;;;;;;4975523;28;20772;-89
2023/09/29 11:14:05;;;;;;;6.93;4.17;;;27.00;1.00;;;;;;4960866;28;20451;-89
2023/09/29 11:20:26;;;;;;;7.07;4.57;;;27.10;1.00;;;;;;4964739;28;20427;-90
2023/09/29 11:23:13;;;;;;;8.97;4.20;;;27.00;1.00;;;;;;4977498;28;20428;-89
2023/09/29 11:25:58;;;;;;;647.90;409.77;;;27.20;1.00;;;;;;5030712;28;20950;-90
2023/09/29 11:28:47;;;;;;;13.63;4.80;;;27.40;1.00;;;;;;5021126;28;20432;-90
2023/09/29 11:31:25;;;;;;;697.63;435.57;;;27.30;1.00;;;;;;5019385;28;20427;-89
2023/09/29 11:34:36;;;;;;;8.93;4.80;;;27.40;1.00;;;;;;4999631;28;20547;-89
2023/09/29 11:37:07;;;;;;;7.17;4.40;;;27.30;1.00;;;;;;5014820;28;20760;-89
2023/09/29 11:40:18;;;;;;;13.30;4.20;;;27.40;1.00;;;;;;5018532;28;20415;-89
2023/09/29 11:43:06;;;;;;;5.70;3.87;;;27.30;1.00;;;;;;5023201;28;20422;-89
2023/09/29 11:46:00;;;;;;;16.80;4.77;;;27.30;1.00;;;;;;5018615;28;20983;-89
2023/09/29 11:48:37;;;;;;;9.10;3.90;;;27.50;1.00;;;;;;5029634;28;20426;-89
2023/09/29 11:51:14;;;;;;;6.13;3.70;;;28.10;1.00;;;;;;5030928;28;20534;-85
2023/09/29 11:54:06;;;;;;;7.93;4.00;;;28.10;1.00;;;;;;5014405;28;20573;-86
2023/09/29 11:56:36;;;;;;;4.90;3.60;;;28.50;1.00;;;;;;5014420;28;20838;-86
2023/09/29 11:59:07;;;;;;;10.73;3.60;;;28.90;1.00;;;;;;5014446;28;20506;-85
2023/09/29 12:01:36;;;;;;;8.33;3.90;;;29.10;1.00;;;;;;5014560;28;20470;-86
2023/09/29 12:04:06;;;;;;;13.60;4.57;;;28.90;1.00;;;;;;5023962;28;20927;-85
2023/09/29 12:06:39;;;;;;;6.53;3.60;;;28.70;1.00;;;;;;5029134;28;20455;-85
2023/09/29 12:09:07;;;;;;;11.40;3.77;;;;;;;;;;5018374;28;20414;-86
2023/09/29 12:11:37;;;;;;;17.43;3.70;;;28.20;1.00;;;;;;5023194;28;20511;-86
2023/09/29 12:14:08;;;;;;;7.70;3.00;;;27.90;1.00;;;;;;5010749;28;20442;-85
2023/09/29 12:16:36;;;;;;;13.47;3.27;;;27.70;1.00;;;;;;5008540;28;22076;-81
2023/09/29 12:19:55;;;;;;;9.20;3.90;;;27.40;1.00;;;;;;5013257;28;20417;-86
2023/09/29 12:22:25;;;;;;;3.93;3.23;;;27.30;1.00;;;;;;5013893;28;20499;-86
2023/09/29 12:24:55;;;;;;;6.63;3.27;;;;;;;;;;5013185;28;20463;-86
2023/09/29 12:28:06;;;;;;;5.43;3.10;;;26.90;1.00;;;;;;5012872;28;20934;-85
2023/09/29 12:30:36;;;;;;;4.97;3.20;;;26.80;1.00;;;;;;5006347;28;20939;-85
2023/09/29 12:33:21;;;;;;;7.60;2.97;;;26.60;1.00;;;;;;4994010;28;20406;-85
2023/09/29 12:36:08;;;;;;;6.00;3.00;;;26.70;1.00;;;;;;5018368;28;20432;-86
2023/09/29 12:38:36;;;;;;;3.23;2.80;;;26.40;1.00;;;;;;5006059;28;20490;-86
2023/09/29 12:41:13;;;;;;;8.23;2.93;;;26.40;1.00;;;;;;5033350;28;20412;-86
2023/09/29 12:43:43;;;;;;;4.90;2.87;;;26.30;1.00;;;;;;5015245;28;20449;-86
2023/09/29 12:49:54;;;;;;;12.00;3.73;;;26.20;1.00;;;;;;5017669;28;20483;-92
2023/09/29 12:52:30;;;;;;;5.30;2.77;;;26.40;1.00;;;;;;5032079;28;20424;-86
2023/09/29 12:54:57;;;;;;;14.43;3.63;;;26.60;1.00;;;;;;5015441;28;20439;-89
2023/09/29 12:57:24;;;;;;;6.50;3.30;;;26.70;1.00;;;;;;5011694;28;20499;-85
2023/09/29 13:03:42;;;;;;;10.93;3.50;;;26.40;1.00;;;;;;5019966;28;20496;-90
2023/09/29 13:06:09;;;;;;;9.90;2.90;;;26.30;1.00;;;;;;5009735;28;20445;-88
2023/09/29 13:08:37;;;;;;;5.40;3.03;;;26.10;1.00;;;;;;4999551;28;20418;-87
2023/09/29 13:11:06;;;;;;;6.90;3.00;;;25.80;1.00;;;;;;5010114;28;20489;-88
2023/09/29 13:13:37;;;;;;;6.20;3.23;;;25.50;1.00;;;;;;5047985;28;20784;-88
2023/09/29 13:16:18;;;;;;;5.90;3.17;;;25.20;1.00;;;;;;5016825;28;20423;-88
2023/09/29 13:19:19;;;;;;;10.77;3.10;;;24.90;1.00;;;;;;5021580;28;20954;-89
2023/09/29 13:21:55;;;;;;;4.17;2.50;;;24.60;1.00;;;;;;5013337;28;20432;-89
2023/09/29 13:25:00;;;;;;;9.60;3.87;;;24.40;1.00;;;;;;5008045;28;20470;-86
2023/09/29 13:27:48;;;;;;;8.93;3.43;;;24.20;1.00;;;;;;5028095;28;20428;-89
2023/09/29 13:30:25;;;;;;;11.30;4.23;;;24.00;1.00;;;;;;5004139;28;20412;-88
2023/09/29 13:33:36;;;;;;;12.87;4.80;;;24.10;1.00;;;;;;5017527;28;20941;-86
2023/09/29 13:36:03;;;;;;;12.83;4.93;;;24.10;1.00;;;;;;5027803;28;20809;-86
2023/09/29 13:38:43;;;;;;;13.60;4.97;;;24.20;1.00;;;;;;5016570;28;20406;-89
2023/09/29 13:41:09;;;;;;;20.63;7.17;;;23.80;1.00;;;;;;5004257;28;20433;-90
2023/09/29 13:47:43;;;;;;;15.60;5.47;;;23.80;1.00;;;;;;5012987;28;20408;-90
2023/09/29 13:50:30;;;;;;;14.07;5.23;;;23.70;1.00;;;;;;5026909;28;20443;-91
2023/09/29 13:53:12;;;;;;;18.43;5.80;;;23.80;1.00;;;;;;5011507;28;20417;-85
2023/09/29 13:59:01;;;;;;;17.17;5.83;;;23.80;1.00;;;;;;5015340;28;20944;-88
2023/09/29 14:08:42;;;;;;;38.03;11.00;;;24.00;1.00;;;;;;5000564;28;20426;-86
2023/09/29 14:11:49;;;;;;;31.07;11.10;;;24.20;1.00;;;;;;5014373;28;20922;-90
2023/09/29 14:14:25;;;;;;;35.47;11.70;;;;;;;;;;5016303;28;20442;-88
2023/09/29 14:17:06;;;;;;;31.27;10.77;;;24.30;1.00;;;;;;5028637;28;20841;-88
2023/09/29 14:19:37;;;;;;;36.90;11.97;;;;;;;;;;5015544;28;20441;-88
2023/09/29 14:22:19;;;;;;;30.30;10.77;;;24.70;1.00;;;;;;5025763;28;21006;-86
2023/09/29 14:28:07;;;;;;;32.80;11.30;;;24.70;1.00;;;;;;5015354;28;20420;-85
2023/09/29 14:30:34;;;;;;;35.80;12.17;;;24.80;1.00;;;;;;5022398;28;20942;-84
2023/09/29 14:33:30;;;;;;;33.53;11.10;;;24.90;1.00;;;;;;5034207;28;20524;-88
2023/09/29 14:36:06;;;;;;;37.53;11.20;;;25.10;1.00;;;;;;5002660;28;20996;-86
2023/09/29 14:38:54;;;;;;;44.27;12.67;;;25.20;1.00;;;;;;5008076;28;20951;-92
2023/09/29 14:45:01;;;;;;;35.57;12.70;;;25.10;1.00;;;;;;5014509;28;21046;-85
2023/09/29 14:47:53;;;;;;;28.47;11.23;;;24.80;1.00;;;;;;5017341;28;20425;-86
2023/09/29 14:51:00;;;;;;;36.23;12.40;;;24.50;1.00;;;;;;5016211;28;20995;-87
2023/09/29 14:53:49;;;;;;;52.40;12.47;;;24.60;1.00;;;;;;5015306;28;20417;-88
2023/09/29 14:59:37;;;;;;;37.07;12.80;;;24.50;1.00;;;;;;5036345;28;20405;-90
2023/09/29 15:02:03;;;;;;;35.37;11.10;;;24.90;1.00;;;;;;5019130;28;20455;-89
2023/09/29 15:04:55;;;;;;;30.30;10.63;;;24.90;1.00;;;;;;5010365;28;20461;-91
2023/09/29 15:07:27;;;;;;;37.43;12.30;;;24.80;1.00;;;;;;4996444;28;20425;-90
2023/09/29 15:09:54;;;;;;;41.13;12.37;;;24.50;1.00;;;;;;5013521;28;20521;-90
2023/09/29 15:12:48;;;;;;;36.93;12.00;;;24.40;1.00;;;;;;5034714;28;20437;-90
2023/09/29 15:15:30;;;;;;;35.00;12.83;;;24.10;1.00;;;;;;5017045;28;20444;-89
2023/09/29 15:18:37;;;;;;;40.63;13.43;;;24.10;1.00;;;;;;4999449;28;20475;-90
2023/09/29 15:21:06;;;;;;;44.37;13.30;;;24.00;1.00;;;;;;5017665;28;20514;-93
2023/09/29 15:24:01;;;;;;;34.37;12.17;;;24.00;1.00;;;;;;5026613;28;20440;-90
2023/09/29 15:30:01;;;;;;;38.57;13.73;;;23.90;1.00;;;;;;5007030;28;20407;-89
2023/09/29 15:32:32;;;;;;;39.80;11.50;;;23.60;1.00;;;;;;5022882;28;20419;-88
2023/09/29 15:35:01;;;;;;;33.30;11.03;;;23.80;1.00;;;;;;5007962;28;20501;-89
2023/09/29 15:37:27;;;;;;;36.77;10.87;;;24.00;1.00;;;;;;4995403;28;20427;-89